sensor_id;sensor_type;location;lat;lon;timestamp;P1;durP1;ratioP1;P2;durP2;ratioP2
13847;SDS011;6994;49.752;6.094;2022-07-05T00:01:10;1.95;;;1.30;;
13847;SDS011;6994;49.752;6.094;2022-07-05T00:03:37;1.62;;;1.52;;
13847;SDS011;6994;49.752;6.094;2022-07-05T00:06:04;1.27;;;1.17;;
13847;SDS011;6994;49.752;6.094;2022-07-05T00:08:31;1.65;;;0.98;;
13847;SDS011;6994;49.752;6.094;2022-07-05T00:10:58;2.62;;;1.30;;
13847;SDS011;6994;49.752;6.094;2022-07-05T00:13:26;1.80;;;1.20;;
13847;SDS011;6994;49.752;6.094;2022-07-05T00:15:54;1.87;;;1.20;;
13847;SDS011;6994;49.752;6.094;2022-07-05T00:18:22;1.23;;;1.05;;
13847;SDS011;6994;49.752;6.094;2022-07-05T00:20:50;1.85;;;1.10;;
13847;SDS011;6994;49.752;6.094;2022-07-05T00:23:18;1.45;;;1.10;;
13847;SDS011;6994;49.752;6.094;2022-07-05T00:25:46;2.90;;;1.50;;
13847;SDS011;6994;49.752;6.094;2022-07-05T00:28:13;2.33;;;1.23;;
13847;SDS011;6994;49.752;6.094;2022-07-05T00:30:41;1.87;;;1.20;;
13847;SDS011;6994;49.752;6.094;2022-07-05T00:33:08;1.30;;;1.10;;
13847;SDS011;6994;49.752;6.094;2022-07-05T00:35:35;4.10;;;1.10;;
13847;SDS011;6994;49.752;6.094;2022-07-05T00:38:02;1.23;;;1.10;;
13847;SDS011;6994;49.752;6.094;2022-07-05T00:40:29;2.17;;;1.25;;
13847;SDS011;6994;49.752;6.094;2022-07-05T00:42:57;2.67;;;1.30;;
13847;SDS011;6994;49.752;6.094;2022-07-05T00:45:24;1.73;;;1.30;;
13847;SDS011;6994;49.752;6.094;2022-07-05T00:47:51;5.07;;;1.12;;
13847;SDS011;6994;49.752;6.094;2022-07-05T00:50:18;1.45;;;1.12;;
13847;SDS011;6994;49.752;6.094;2022-07-05T00:52:45;1.12;;;0.95;;
13847;SDS011;6994;49.752;6.094;2022-07-05T00:55:13;1.62;;;1.30;;
13847;SDS011;6994;49.752;6.094;2022-07-05T00:57:40;1.40;;;1.30;;
13847;SDS011;6994;49.752;6.094;2022-07-05T01:00:07;3.28;;;1.48;;
13847;SDS011;6994;49.752;6.094;2022-07-05T01:02:34;1.80;;;1.67;;
13847;SDS011;6994;49.752;6.094;2022-07-05T01:05:03;4.03;;;2.35;;
13847;SDS011;6994;49.752;6.094;2022-07-05T01:07:29;1.75;;;1.20;;
13847;SDS011;6994;49.752;6.094;2022-07-05T01:09:56;4.20;;;1.70;;
13847;SDS011;6994;49.752;6.094;2022-07-05T01:12:24;2.65;;;1.33;;
13847;SDS011;6994;49.752;6.094;2022-07-05T01:14:51;2.05;;;1.50;;
13847;SDS011;6994;49.752;6.094;2022-07-05T01:17:18;1.40;;;1.30;;
13847;SDS011;6994;49.752;6.094;2022-07-05T01:19:46;3.47;;;1.50;;
13847;SDS011;6994;49.752;6.094;2022-07-05T01:22:17;3.95;;;1.40;;
13847;SDS011;6994;49.752;6.094;2022-07-05T01:24:45;2.70;;;1.33;;
13847;SDS011;6994;49.752;6.094;2022-07-05T01:27:11;2.03;;;1.58;;
13847;SDS011;6994;49.752;6.094;2022-07-05T01:29:38;1.23;;;1.08;;
13847;SDS011;6994;49.752;6.094;2022-07-05T01:32:05;3.15;;;1.35;;
13847;SDS011;6994;49.752;6.094;2022-07-05T01:34:33;3.35;;;2.12;;
13847;SDS011;6994;49.752;6.094;2022-07-05T01:37:00;1.95;;;1.80;;
13847;SDS011;6994;49.752;6.094;2022-07-05T01:39:27;3.17;;;2.00;;
13847;SDS011;6994;49.752;6.094;2022-07-05T01:41:54;1.30;;;1.20;;
13847;SDS011;6994;49.752;6.094;2022-07-05T01:44:21;3.70;;;1.50;;
13847;SDS011;6994;49.752;6.094;2022-07-05T01:46:50;2.65;;;1.67;;
13847;SDS011;6994;49.752;6.094;2022-07-05T01:49:16;3.15;;;2.15;;
13847;SDS011;6994;49.752;6.094;2022-07-05T01:52:01;2.67;;;1.60;;
13847;SDS011;6994;49.752;6.094;2022-07-05T01:54:26;4.32;;;1.80;;
13847;SDS011;6994;49.752;6.094;2022-07-05T01:56:53;1.67;;;1.50;;
13847;SDS011;6994;49.752;6.094;2022-07-05T01:59:20;3.08;;;1.65;;
13847;SDS011;6994;49.752;6.094;2022-07-05T02:01:48;2.83;;;1.40;;
13847;SDS011;6994;49.752;6.094;2022-07-05T02:04:16;2.12;;;1.58;;
13847;SDS011;6994;49.752;6.094;2022-07-05T02:06:43;1.42;;;1.33;;
13847;SDS011;6994;49.752;6.094;2022-07-05T02:09:10;2.55;;;1.52;;
13847;SDS011;6994;49.752;6.094;2022-07-05T02:11:38;2.03;;;1.77;;
13847;SDS011;6994;49.752;6.094;2022-07-05T02:14:05;3.60;;;1.60;;
13847;SDS011;6994;49.752;6.094;2022-07-05T02:16:32;1.87;;;1.70;;
13847;SDS011;6994;49.752;6.094;2022-07-05T02:19:00;2.42;;;1.70;;
13847;SDS011;6994;49.752;6.094;2022-07-05T02:21:27;2.80;;;1.65;;
13847;SDS011;6994;49.752;6.094;2022-07-05T02:23:54;2.05;;;1.52;;
13847;SDS011;6994;49.752;6.094;2022-07-05T02:26:21;1.65;;;1.55;;
13847;SDS011;6994;49.752;6.094;2022-07-05T02:28:48;2.08;;;1.70;;
13847;SDS011;6994;49.752;6.094;2022-07-05T02:31:16;2.10;;;1.83;;
13847;SDS011;6994;49.752;6.094;2022-07-05T02:33:43;2.87;;;1.90;;
13847;SDS011;6994;49.752;6.094;2022-07-05T02:36:11;2.75;;;2.17;;
13847;SDS011;6994;49.752;6.094;2022-07-05T02:38:37;4.18;;;2.62;;
13847;SDS011;6994;49.752;6.094;2022-07-05T02:41:08;2.42;;;2.20;;
13847;SDS011;6994;49.752;6.094;2022-07-05T02:43:35;3.20;;;1.75;;
13847;SDS011;6994;49.752;6.094;2022-07-05T02:46:02;2.33;;;1.85;;
13847;SDS011;6994;49.752;6.094;2022-07-05T02:48:29;3.47;;;2.05;;
13847;SDS011;6994;49.752;6.094;2022-07-05T02:50:57;2.45;;;1.60;;
13847;SDS011;6994;49.752;6.094;2022-07-05T02:53:24;1.67;;;1.58;;
13847;SDS011;6994;49.752;6.094;2022-07-05T02:55:51;4.15;;;1.90;;
13847;SDS011;6994;49.752;6.094;2022-07-05T02:58:18;2.83;;;2.08;;
13847;SDS011;6994;49.752;6.094;2022-07-05T03:00:46;2.95;;;2.33;;
13847;SDS011;6994;49.752;6.094;2022-07-05T03:03:13;4.78;;;1.95;;
13847;SDS011;6994;49.752;6.094;2022-07-05T03:05:40;3.25;;;1.87;;
13847;SDS011;6994;49.752;6.094;2022-07-05T03:08:07;3.25;;;1.58;;
13847;SDS011;6994;49.752;6.094;2022-07-05T03:10:34;3.28;;;1.62;;
13847;SDS011;6994;49.752;6.094;2022-07-05T03:13:02;2.78;;;1.85;;
13847;SDS011;6994;49.752;6.094;2022-07-05T03:15:29;2.05;;;1.73;;
13847;SDS011;6994;49.752;6.094;2022-07-05T03:17:57;3.33;;;2.00;;
13847;SDS011;6994;49.752;6.094;2022-07-05T03:20:24;6.10;;;2.00;;
13847;SDS011;6994;49.752;6.094;2022-07-05T03:22:51;2.08;;;1.95;;
13847;SDS011;6994;49.752;6.094;2022-07-05T03:25:18;4.15;;;2.10;;
13847;SDS011;6994;49.752;6.094;2022-07-05T03:27:45;2.20;;;2.00;;
13847;SDS011;6994;49.752;6.094;2022-07-05T03:30:13;6.07;;;2.40;;
13847;SDS011;6994;49.752;6.094;2022-07-05T03:32:40;2.10;;;1.90;;
13847;SDS011;6994;49.752;6.094;2022-07-05T03:35:07;3.65;;;2.72;;
13847;SDS011;6994;49.752;6.094;2022-07-05T03:37:34;3.80;;;2.15;;
13847;SDS011;6994;49.752;6.094;2022-07-05T03:40:01;2.60;;;2.30;;
13847;SDS011;6994;49.752;6.094;2022-07-05T03:42:29;4.50;;;2.00;;
13847;SDS011;6994;49.752;6.094;2022-07-05T03:44:56;4.80;;;2.50;;
13847;SDS011;6994;49.752;6.094;2022-07-05T03:47:24;3.58;;;2.40;;
13847;SDS011;6994;49.752;6.094;2022-07-05T03:49:53;2.30;;;2.10;;
13847;SDS011;6994;49.752;6.094;2022-07-05T03:52:20;2.00;;;1.73;;
13847;SDS011;6994;49.752;6.094;2022-07-05T03:54:48;2.45;;;2.05;;
13847;SDS011;6994;49.752;6.094;2022-07-05T03:57:16;2.10;;;1.98;;
13847;SDS011;6994;49.752;6.094;2022-07-05T03:59:44;2.03;;;1.45;;
13847;SDS011;6994;49.752;6.094;2022-07-05T04:02:12;3.45;;;1.73;;
13847;SDS011;6994;49.752;6.094;2022-07-05T04:04:39;2.17;;;1.90;;
13847;SDS011;6994;49.752;6.094;2022-07-05T04:07:06;3.15;;;1.98;;
13847;SDS011;6994;49.752;6.094;2022-07-05T04:09:33;2.47;;;1.48;;
13847;SDS011;6994;49.752;6.094;2022-07-05T04:12:00;2.37;;;1.77;;
13847;SDS011;6994;49.752;6.094;2022-07-05T04:14:28;3.50;;;1.95;;
13847;SDS011;6994;49.752;6.094;2022-07-05T04:16:55;1.87;;;1.77;;
13847;SDS011;6994;49.752;6.094;2022-07-05T04:19:22;2.03;;;1.60;;
13847;SDS011;6994;49.752;6.094;2022-07-05T04:21:49;3.08;;;1.83;;
13847;SDS011;6994;49.752;6.094;2022-07-05T04:24:16;4.25;;;2.00;;
13847;SDS011;6994;49.752;6.094;2022-07-05T04:26:44;1.92;;;1.67;;
13847;SDS011;6994;49.752;6.094;2022-07-05T04:29:11;5.82;;;2.25;;
13847;SDS011;6994;49.752;6.094;2022-07-05T04:31:39;3.42;;;2.10;;
13847;SDS011;6994;49.752;6.094;2022-07-05T04:34:07;2.92;;;1.95;;
13847;SDS011;6994;49.752;6.094;2022-07-05T04:36:35;2.05;;;1.90;;
13847;SDS011;6994;49.752;6.094;2022-07-05T04:39:03;2.40;;;2.03;;
13847;SDS011;6994;49.752;6.094;2022-07-05T04:41:30;3.08;;;2.58;;
13847;SDS011;6994;49.752;6.094;2022-07-05T04:43:57;2.85;;;1.80;;
13847;SDS011;6994;49.752;6.094;2022-07-05T04:46:24;3.78;;;2.30;;
13847;SDS011;6994;49.752;6.094;2022-07-05T04:48:52;3.50;;;1.85;;
13847;SDS011;6994;49.752;6.094;2022-07-05T04:51:19;2.75;;;1.70;;
13847;SDS011;6994;49.752;6.094;2022-07-05T04:53:46;2.92;;;2.12;;
13847;SDS011;6994;49.752;6.094;2022-07-05T04:56:13;6.75;;;2.72;;
13847;SDS011;6994;49.752;6.094;2022-07-05T04:58:40;3.35;;;2.33;;
13847;SDS011;6994;49.752;6.094;2022-07-05T05:01:08;3.20;;;2.67;;
13847;SDS011;6994;49.752;6.094;2022-07-05T05:03:35;4.25;;;2.62;;
13847;SDS011;6994;49.752;6.094;2022-07-05T05:06:02;3.37;;;2.28;;
13847;SDS011;6994;49.752;6.094;2022-07-05T05:08:29;3.95;;;2.10;;
13847;SDS011;6994;49.752;6.094;2022-07-05T05:10:57;4.18;;;2.47;;
13847;SDS011;6994;49.752;6.094;2022-07-05T05:13:24;4.75;;;2.92;;
13847;SDS011;6994;49.752;6.094;2022-07-05T05:15:51;3.20;;;2.65;;
13847;SDS011;6994;49.752;6.094;2022-07-05T05:18:19;3.15;;;2.85;;
13847;SDS011;6994;49.752;6.094;2022-07-05T05:20:46;5.55;;;2.87;;
13847;SDS011;6994;49.752;6.094;2022-07-05T05:23:13;5.50;;;3.03;;
13847;SDS011;6994;49.752;6.094;2022-07-05T05:25:40;4.00;;;2.85;;
13847;SDS011;6994;49.752;6.094;2022-07-05T05:28:08;6.10;;;3.75;;
13847;SDS011;6994;49.752;6.094;2022-07-05T05:30:35;5.82;;;4.57;;
13847;SDS011;6994;49.752;6.094;2022-07-05T05:33:02;5.00;;;4.12;;
13847;SDS011;6994;49.752;6.094;2022-07-05T05:35:29;4.82;;;3.80;;
13847;SDS011;6994;49.752;6.094;2022-07-05T05:37:56;4.07;;;3.72;;
13847;SDS011;6994;49.752;6.094;2022-07-05T05:40:24;5.93;;;3.47;;
13847;SDS011;6994;49.752;6.094;2022-07-05T05:42:52;5.18;;;3.50;;
13847;SDS011;6994;49.752;6.094;2022-07-05T05:45:20;4.40;;;3.97;;
13847;SDS011;6994;49.752;6.094;2022-07-05T05:47:53;3.78;;;3.47;;
13847;SDS011;6994;49.752;6.094;2022-07-05T05:50:19;5.47;;;3.67;;
13847;SDS011;6994;49.752;6.094;2022-07-05T05:52:48;4.43;;;3.53;;
13847;SDS011;6994;49.752;6.094;2022-07-05T05:55:16;5.72;;;4.12;;
13847;SDS011;6994;49.752;6.094;2022-07-05T05:57:43;5.15;;;3.60;;
13847;SDS011;6994;49.752;6.094;2022-07-05T06:00:10;6.30;;;4.07;;
13847;SDS011;6994;49.752;6.094;2022-07-05T06:02:38;9.40;;;3.92;;
13847;SDS011;6994;49.752;6.094;2022-07-05T06:05:05;5.53;;;3.40;;
13847;SDS011;6994;49.752;6.094;2022-07-05T06:12:48;4.40;;;3.62;;
13847;SDS011;6994;49.752;6.094;2022-07-05T06:15:15;3.45;;;3.00;;
13847;SDS011;6994;49.752;6.094;2022-07-05T06:17:42;5.50;;;3.42;;
13847;SDS011;6994;49.752;6.094;2022-07-05T06:20:10;5.55;;;4.25;;
13847;SDS011;6994;49.752;6.094;2022-07-05T06:22:39;4.95;;;3.85;;
13847;SDS011;6994;49.752;6.094;2022-07-05T06:25:06;4.00;;;3.60;;
13847;SDS011;6994;49.752;6.094;2022-07-05T06:27:43;4.57;;;3.30;;
13847;SDS011;6994;49.752;6.094;2022-07-05T06:30:07;6.90;;;4.37;;
13847;SDS011;6994;49.752;6.094;2022-07-05T06:32:34;4.47;;;3.85;;
13847;SDS011;6994;49.752;6.094;2022-07-05T06:35:01;6.35;;;4.00;;
13847;SDS011;6994;49.752;6.094;2022-07-05T06:37:39;5.78;;;4.50;;
13847;SDS011;6994;49.752;6.094;2022-07-05T06:39:55;6.57;;;4.10;;
13847;SDS011;6994;49.752;6.094;2022-07-05T06:42:23;4.80;;;3.95;;
13847;SDS011;6994;49.752;6.094;2022-07-05T06:44:51;5.53;;;4.80;;
13847;SDS011;6994;49.752;6.094;2022-07-05T06:47:18;6.03;;;5.07;;
13847;SDS011;6994;49.752;6.094;2022-07-05T06:49:45;10.82;;;4.75;;
13847;SDS011;6994;49.752;6.094;2022-07-05T06:52:13;4.93;;;4.28;;
13847;SDS011;6994;49.752;6.094;2022-07-05T06:54:40;7.32;;;4.75;;
13847;SDS011;6994;49.752;6.094;2022-07-05T06:57:07;7.07;;;4.37;;
13847;SDS011;6994;49.752;6.094;2022-07-05T06:59:35;5.40;;;4.87;;
13847;SDS011;6994;49.752;6.094;2022-07-05T07:02:02;5.05;;;3.80;;
13847;SDS011;6994;49.752;6.094;2022-07-05T07:04:29;9.25;;;5.10;;
13847;SDS011;6994;49.752;6.094;2022-07-05T07:06:56;4.50;;;3.95;;
13847;SDS011;6994;49.752;6.094;2022-07-05T07:09:23;6.40;;;4.55;;
13847;SDS011;6994;49.752;6.094;2022-07-05T07:11:51;6.05;;;3.92;;
13847;SDS011;6994;49.752;6.094;2022-07-05T07:14:18;8.65;;;4.15;;
13847;SDS011;6994;49.752;6.094;2022-07-05T07:16:45;6.80;;;3.72;;
13847;SDS011;6994;49.752;6.094;2022-07-05T07:19:12;6.97;;;4.07;;
13847;SDS011;6994;49.752;6.094;2022-07-05T07:21:40;5.00;;;4.32;;
13847;SDS011;6994;49.752;6.094;2022-07-05T07:24:07;5.80;;;4.53;;
13847;SDS011;6994;49.752;6.094;2022-07-05T07:26:35;10.00;;;4.05;;
13847;SDS011;6994;49.752;6.094;2022-07-05T07:29:20;4.75;;;4.18;;
13847;SDS011;6994;49.752;6.094;2022-07-05T07:31:47;6.43;;;4.18;;
13847;SDS011;6994;49.752;6.094;2022-07-05T07:34:14;7.57;;;3.83;;
13847;SDS011;6994;49.752;6.094;2022-07-05T07:36:41;6.28;;;4.87;;
13847;SDS011;6994;49.752;6.094;2022-07-05T07:39:09;8.77;;;4.37;;
13847;SDS011;6994;49.752;6.094;2022-07-05T07:41:36;4.40;;;4.00;;
13847;SDS011;6994;49.752;6.094;2022-07-05T07:44:04;6.22;;;4.50;;
13847;SDS011;6994;49.752;6.094;2022-07-05T07:46:31;5.95;;;4.35;;
13847;SDS011;6994;49.752;6.094;2022-07-05T07:48:58;5.97;;;3.62;;
13847;SDS011;6994;49.752;6.094;2022-07-05T07:51:25;4.55;;;3.35;;
13847;SDS011;6994;49.752;6.094;2022-07-05T07:53:52;4.18;;;2.80;;
13847;SDS011;6994;49.752;6.094;2022-07-05T07:56:20;4.80;;;3.70;;
13847;SDS011;6994;49.752;6.094;2022-07-05T07:58:47;3.40;;;2.92;;
13847;SDS011;6994;49.752;6.094;2022-07-05T08:01:14;5.37;;;2.58;;
13847;SDS011;6994;49.752;6.094;2022-07-05T08:03:42;2.62;;;2.30;;
13847;SDS011;6994;49.752;6.094;2022-07-05T08:06:10;4.10;;;3.00;;
13847;SDS011;6994;49.752;6.094;2022-07-05T08:08:38;4.20;;;2.47;;
13847;SDS011;6994;49.752;6.094;2022-07-05T08:11:04;4.32;;;2.78;;
13847;SDS011;6994;49.752;6.094;2022-07-05T08:13:32;7.20;;;4.37;;
13847;SDS011;6994;49.752;6.094;2022-07-05T08:16:00;4.93;;;3.58;;
13847;SDS011;6994;49.752;6.094;2022-07-05T08:18:27;5.07;;;2.58;;
13847;SDS011;6994;49.752;6.094;2022-07-05T08:21:12;5.78;;;2.95;;
13847;SDS011;6994;49.752;6.094;2022-07-05T08:24:04;2.95;;;2.30;;
13847;SDS011;6994;49.752;6.094;2022-07-05T08:26:30;3.33;;;2.00;;
13847;SDS011;6994;49.752;6.094;2022-07-05T08:28:58;2.87;;;2.12;;
13847;SDS011;6994;49.752;6.094;2022-07-05T08:31:29;1.60;;;1.37;;
13847;SDS011;6994;49.752;6.094;2022-07-05T08:33:56;2.42;;;1.25;;
13847;SDS011;6994;49.752;6.094;2022-07-05T08:36:24;3.75;;;1.77;;
13847;SDS011;6994;49.752;6.094;2022-07-05T08:38:52;1.65;;;1.30;;
13847;SDS011;6994;49.752;6.094;2022-07-05T08:41:20;3.17;;;1.77;;
13847;SDS011;6994;49.752;6.094;2022-07-05T08:43:47;2.87;;;1.83;;
13847;SDS011;6994;49.752;6.094;2022-07-05T08:46:14;6.65;;;2.70;;
13847;SDS011;6994;49.752;6.094;2022-07-05T08:48:41;3.92;;;2.17;;
13847;SDS011;6994;49.752;6.094;2022-07-05T08:51:10;4.18;;;2.40;;
13847;SDS011;6994;49.752;6.094;2022-07-05T08:53:39;1.62;;;1.15;;
13847;SDS011;6994;49.752;6.094;2022-07-05T08:56:09;3.85;;;2.25;;
13847;SDS011;6994;49.752;6.094;2022-07-05T08:58:36;2.33;;;1.27;;
13847;SDS011;6994;49.752;6.094;2022-07-05T09:01:03;2.85;;;0.90;;
13847;SDS011;6994;49.752;6.094;2022-07-05T09:03:50;6.85;;;1.40;;
13847;SDS011;6994;49.752;6.094;2022-07-05T09:06:12;2.85;;;1.30;;
13847;SDS011;6994;49.752;6.094;2022-07-05T09:08:37;1.00;;;0.90;;
13847;SDS011;6994;49.752;6.094;2022-07-05T09:11:05;2.90;;;0.93;;
13847;SDS011;6994;49.752;6.094;2022-07-05T09:13:38;2.33;;;1.48;;
13847;SDS011;6994;49.752;6.094;2022-07-05T09:15:59;3.75;;;1.40;;
13847;SDS011;6994;49.752;6.094;2022-07-05T09:21:13;3.08;;;0.98;;
13847;SDS011;6994;49.752;6.094;2022-07-05T09:23:43;1.98;;;1.17;;
13847;SDS011;6994;49.752;6.094;2022-07-05T09:26:09;1.45;;;1.30;;
13847;SDS011;6994;49.752;6.094;2022-07-05T09:28:37;2.28;;;1.50;;
13847;SDS011;6994;49.752;6.094;2022-07-05T09:31:05;2.12;;;1.30;;
13847;SDS011;6994;49.752;6.094;2022-07-05T09:33:33;2.03;;;1.48;;
13847;SDS011;6994;49.752;6.094;2022-07-05T09:36:00;1.92;;;1.15;;
13847;SDS011;6994;49.752;6.094;2022-07-05T09:38:27;2.53;;;0.98;;
13847;SDS011;6994;49.752;6.094;2022-07-05T09:40:55;3.85;;;1.17;;
13847;SDS011;6994;49.752;6.094;2022-07-05T09:43:22;3.42;;;1.87;;
13847;SDS011;6994;49.752;6.094;2022-07-05T09:45:55;1.50;;;1.00;;
13847;SDS011;6994;49.752;6.094;2022-07-05T09:48:29;3.28;;;1.25;;
13847;SDS011;6994;49.752;6.094;2022-07-05T09:51:09;7.05;;;1.25;;
13847;SDS011;6994;49.752;6.094;2022-07-05T09:56:18;3.45;;;0.70;;
13847;SDS011;6994;49.752;6.094;2022-07-05T09:58:45;0.98;;;0.80;;
13847;SDS011;6994;49.752;6.094;2022-07-05T10:01:23;3.53;;;1.10;;
13847;SDS011;6994;49.752;6.094;2022-07-05T10:03:59;1.42;;;1.17;;
13847;SDS011;6994;49.752;6.094;2022-07-05T10:06:26;4.68;;;1.25;;
13847;SDS011;6994;49.752;6.094;2022-07-05T10:08:53;0.98;;;0.88;;
13847;SDS011;6994;49.752;6.094;2022-07-05T10:11:21;1.30;;;0.90;;
13847;SDS011;6994;49.752;6.094;2022-07-05T10:13:49;0.80;;;0.80;;
13847;SDS011;6994;49.752;6.094;2022-07-05T10:16:17;3.40;;;1.00;;
13847;SDS011;6994;49.752;6.094;2022-07-05T10:18:45;3.90;;;1.27;;
13847;SDS011;6994;49.752;6.094;2022-07-05T10:21:13;1.25;;;0.90;;
13847;SDS011;6994;49.752;6.094;2022-07-05T10:23:42;1.80;;;0.90;;
13847;SDS011;6994;49.752;6.094;2022-07-05T10:26:09;4.60;;;1.23;;
13847;SDS011;6994;49.752;6.094;2022-07-05T10:28:36;2.45;;;1.05;;
13847;SDS011;6994;49.752;6.094;2022-07-05T10:31:04;0.80;;;0.80;;
13847;SDS011;6994;49.752;6.094;2022-07-05T10:33:31;2.80;;;0.90;;
13847;SDS011;6994;49.752;6.094;2022-07-05T10:35:58;1.98;;;1.15;;
13847;SDS011;6994;49.752;6.094;2022-07-05T10:38:25;2.37;;;0.98;;
13847;SDS011;6994;49.752;6.094;2022-07-05T10:40:54;2.00;;;1.17;;
13847;SDS011;6994;49.752;6.094;2022-07-05T10:43:21;1.50;;;1.15;;
13847;SDS011;6994;49.752;6.094;2022-07-05T10:45:47;1.00;;;0.88;;
13847;SDS011;6994;49.752;6.094;2022-07-05T10:48:18;3.30;;;1.17;;
13847;SDS011;6994;49.752;6.094;2022-07-05T10:50:45;1.73;;;1.30;;
13847;SDS011;6994;49.752;6.094;2022-07-05T10:53:15;3.65;;;1.10;;
13847;SDS011;6994;49.752;6.094;2022-07-05T10:58:24;5.60;;;1.00;;
13847;SDS011;6994;49.752;6.094;2022-07-05T11:06:29;1.25;;;0.85;;
13847;SDS011;6994;49.752;6.094;2022-07-05T11:11:26;1.30;;;0.90;;
13847;SDS011;6994;49.752;6.094;2022-07-05T11:13:59;1.10;;;1.00;;
13847;SDS011;6994;49.752;6.094;2022-07-05T11:16:30;2.10;;;0.90;;
13847;SDS011;6994;49.752;6.094;2022-07-05T11:19:06;1.73;;;0.93;;
13847;SDS011;6994;49.752;6.094;2022-07-05T11:21:33;1.92;;;0.75;;
13847;SDS011;6994;49.752;6.094;2022-07-05T11:26:52;3.40;;;0.90;;
13847;SDS011;6994;49.752;6.094;2022-07-05T11:32:09;1.75;;;1.02;;
13847;SDS011;6994;49.752;6.094;2022-07-05T11:34:38;3.12;;;0.90;;
13847;SDS011;6994;49.752;6.094;2022-07-05T11:42:45;2.78;;;1.02;;
13847;SDS011;6994;49.752;6.094;2022-07-05T11:45:08;1.90;;;0.88;;
13847;SDS011;6994;49.752;6.094;2022-07-05T11:47:35;2.78;;;0.90;;
13847;SDS011;6994;49.752;6.094;2022-07-05T11:50:03;1.05;;;1.02;;
13847;SDS011;6994;49.752;6.094;2022-07-05T11:52:34;2.75;;;1.05;;
13847;SDS011;6994;49.752;6.094;2022-07-05T11:55:01;1.35;;;0.90;;
13847;SDS011;6994;49.752;6.094;2022-07-05T11:57:27;1.05;;;1.05;;
13847;SDS011;6994;49.752;6.094;2022-07-05T11:59:55;2.30;;;1.15;;
13847;SDS011;6994;49.752;6.094;2022-07-05T12:02:22;1.60;;;1.10;;
13847;SDS011;6994;49.752;6.094;2022-07-05T12:04:50;0.95;;;0.90;;
13847;SDS011;6994;49.752;6.094;2022-07-05T12:07:30;0.70;;;0.70;;
13847;SDS011;6994;49.752;6.094;2022-07-05T12:09:56;1.92;;;1.17;;
13847;SDS011;6994;49.752;6.094;2022-07-05T12:12:41;3.33;;;0.98;;
13847;SDS011;6994;49.752;6.094;2022-07-05T12:15:15;1.75;;;1.25;;
13847;SDS011;6994;49.752;6.094;2022-07-05T12:17:46;3.05;;;1.40;;
13847;SDS011;6994;49.752;6.094;2022-07-05T12:20:13;3.40;;;1.30;;
13847;SDS011;6994;49.752;6.094;2022-07-05T12:22:43;2.92;;;1.30;;
13847;SDS011;6994;49.752;6.094;2022-07-05T12:25:17;1.23;;;1.00;;
13847;SDS011;6994;49.752;6.094;2022-07-05T12:27:43;2.20;;;1.10;;
13847;SDS011;6994;49.752;6.094;2022-07-05T12:30:10;1.37;;;1.15;;
13847;SDS011;6994;49.752;6.094;2022-07-05T12:32:57;5.30;;;1.20;;
13847;SDS011;6994;49.752;6.094;2022-07-05T12:35:33;1.85;;;1.10;;
13847;SDS011;6994;49.752;6.094;2022-07-05T12:38:03;1.48;;;0.90;;
13847;SDS011;6994;49.752;6.094;2022-07-05T12:40:32;1.90;;;1.10;;
13847;SDS011;6994;49.752;6.094;2022-07-05T12:43:01;1.30;;;1.20;;
13847;SDS011;6994;49.752;6.094;2022-07-05T12:45:29;1.80;;;0.98;;
13847;SDS011;6994;49.752;6.094;2022-07-05T12:47:57;2.25;;;1.33;;
13847;SDS011;6994;49.752;6.094;2022-07-05T12:50:24;1.20;;;1.10;;
13847;SDS011;6994;49.752;6.094;2022-07-05T12:53:03;1.00;;;1.00;;
13847;SDS011;6994;49.752;6.094;2022-07-05T12:55:48;1.20;;;1.02;;
13847;SDS011;6994;49.752;6.094;2022-07-05T12:58:33;0.80;;;0.80;;
13847;SDS011;6994;49.752;6.094;2022-07-05T13:01:00;1.95;;;0.93;;
13847;SDS011;6994;49.752;6.094;2022-07-05T13:03:27;1.00;;;0.82;;
13847;SDS011;6994;49.752;6.094;2022-07-05T13:06:01;3.12;;;1.05;;
13847;SDS011;6994;49.752;6.094;2022-07-05T13:08:28;2.28;;;0.90;;
13847;SDS011;6994;49.752;6.094;2022-07-05T13:10:57;1.77;;;0.82;;
13847;SDS011;6994;49.752;6.094;2022-07-05T13:13:25;0.80;;;0.77;;
13847;SDS011;6994;49.752;6.094;2022-07-05T13:15:53;1.08;;;0.90;;
13847;SDS011;6994;49.752;6.094;2022-07-05T13:18:25;1.58;;;0.90;;
13847;SDS011;6994;49.752;6.094;2022-07-05T13:20:54;1.02;;;0.90;;
13847;SDS011;6994;49.752;6.094;2022-07-05T13:23:22;0.98;;;0.88;;
13847;SDS011;6994;49.752;6.094;2022-07-05T13:25:49;0.98;;;0.90;;
13847;SDS011;6994;49.752;6.094;2022-07-05T13:28:16;0.88;;;0.88;;
13847;SDS011;6994;49.752;6.094;2022-07-05T13:30:43;1.17;;;0.93;;
13847;SDS011;6994;49.752;6.094;2022-07-05T13:33:10;2.08;;;0.90;;
13847;SDS011;6994;49.752;6.094;2022-07-05T13:35:38;1.20;;;1.00;;
13847;SDS011;6994;49.752;6.094;2022-07-05T13:38:06;1.55;;;0.80;;
13847;SDS011;6994;49.752;6.094;2022-07-05T13:40:33;3.00;;;1.05;;
13847;SDS011;6994;49.752;6.094;2022-07-05T13:43:00;1.85;;;0.88;;
13847;SDS011;6994;49.752;6.094;2022-07-05T13:45:27;2.72;;;1.10;;
13847;SDS011;6994;49.752;6.094;2022-07-05T13:47:54;1.52;;;0.90;;
13847;SDS011;6994;49.752;6.094;2022-07-05T13:50:22;1.20;;;1.10;;
13847;SDS011;6994;49.752;6.094;2022-07-05T13:52:59;1.00;;;0.90;;
13847;SDS011;6994;49.752;6.094;2022-07-05T13:55:26;1.33;;;0.73;;
13847;SDS011;6994;49.752;6.094;2022-07-05T13:57:53;1.30;;;1.00;;
13847;SDS011;6994;49.752;6.094;2022-07-05T14:00:21;1.77;;;0.90;;
13847;SDS011;6994;49.752;6.094;2022-07-05T14:02:48;1.52;;;1.00;;
13847;SDS011;6994;49.752;6.094;2022-07-05T14:05:15;2.42;;;1.25;;
13847;SDS011;6994;49.752;6.094;2022-07-05T14:07:43;2.03;;;1.30;;
13847;SDS011;6994;49.752;6.094;2022-07-05T14:10:10;0.80;;;0.80;;
13847;SDS011;6994;49.752;6.094;2022-07-05T14:12:37;2.62;;;1.20;;
13847;SDS011;6994;49.752;6.094;2022-07-05T14:15:04;1.92;;;1.00;;
13847;SDS011;6994;49.752;6.094;2022-07-05T14:17:32;6.07;;;1.40;;
13847;SDS011;6994;49.752;6.094;2022-07-05T14:20:00;2.37;;;1.17;;
13847;SDS011;6994;49.752;6.094;2022-07-05T14:22:28;1.55;;;1.25;;
13847;SDS011;6994;49.752;6.094;2022-07-05T14:24:56;2.12;;;0.93;;
13847;SDS011;6994;49.752;6.094;2022-07-05T14:27:23;1.80;;;1.55;;
13847;SDS011;6994;49.752;6.094;2022-07-05T14:29:50;1.62;;;1.00;;
13847;SDS011;6994;49.752;6.094;2022-07-05T14:32:18;1.12;;;1.00;;
13847;SDS011;6994;49.752;6.094;2022-07-05T14:34:45;1.30;;;1.20;;
13847;SDS011;6994;49.752;6.094;2022-07-05T14:37:12;1.30;;;1.20;;
13847;SDS011;6994;49.752;6.094;2022-07-05T14:39:39;1.95;;;1.30;;
13847;SDS011;6994;49.752;6.094;2022-07-05T14:42:07;2.97;;;1.42;;
13847;SDS011;6994;49.752;6.094;2022-07-05T14:44:34;4.05;;;1.30;;
13847;SDS011;6994;49.752;6.094;2022-07-05T14:47:01;2.35;;;1.35;;
13847;SDS011;6994;49.752;6.094;2022-07-05T14:49:29;1.73;;;1.15;;
13847;SDS011;6994;49.752;6.094;2022-07-05T14:51:57;2.72;;;1.15;;
13847;SDS011;6994;49.752;6.094;2022-07-05T14:54:25;0.90;;;0.90;;
13847;SDS011;6994;49.752;6.094;2022-07-05T14:56:52;3.42;;;1.15;;
13847;SDS011;6994;49.752;6.094;2022-07-05T14:59:19;1.60;;;1.15;;
13847;SDS011;6994;49.752;6.094;2022-07-05T15:01:46;1.48;;;0.80;;
13847;SDS011;6994;49.752;6.094;2022-07-05T15:04:14;1.10;;;1.00;;
13847;SDS011;6994;49.752;6.094;2022-07-05T15:06:41;5.22;;;0.82;;
13847;SDS011;6994;49.752;6.094;2022-07-05T15:09:08;1.60;;;1.12;;
13847;SDS011;6994;49.752;6.094;2022-07-05T15:11:35;2.03;;;0.90;;
13847;SDS011;6994;49.752;6.094;2022-07-05T15:14:02;1.62;;;0.90;;
13847;SDS011;6994;49.752;6.094;2022-07-05T15:16:30;2.90;;;1.15;;
13847;SDS011;6994;49.752;6.094;2022-07-05T15:18:58;2.75;;;1.00;;
13847;SDS011;6994;49.752;6.094;2022-07-05T15:21:26;1.45;;;0.90;;
13847;SDS011;6994;49.752;6.094;2022-07-05T15:23:53;1.77;;;0.98;;
13847;SDS011;6994;49.752;6.094;2022-07-05T15:26:20;0.98;;;0.88;;
13847;SDS011;6994;49.752;6.094;2022-07-05T15:28:47;2.10;;;1.05;;
13847;SDS011;6994;49.752;6.094;2022-07-05T15:31:15;1.05;;;0.88;;
13847;SDS011;6994;49.752;6.094;2022-07-05T15:33:42;1.25;;;1.10;;
13847;SDS011;6994;49.752;6.094;2022-07-05T15:36:09;1.40;;;1.02;;
13847;SDS011;6994;49.752;6.094;2022-07-05T15:38:36;2.00;;;1.05;;